Time;durP1;ratioP1;P1;durP2;ratioP2;P2;SDS_P1;SDS_P2;PMS_P1;PMS_P2;Temp;Humidity;BMP_temperature;BMP_pressure;BME280_temperature;BME280_humidity;BME280_pressure;Samples;Min_cycle;Max_cycle;Signal;HPM_P1;HPM_P2
2022/06/24 00:01:15;;;;;;;3.63;1.20;;;;;;;;;;5078425;28;20380;-89
2022/06/24 00:03:44;;;;;;;2.30;1.10;;;;;;;;;;5078726;28;20400;-89
2022/06/24 00:06:14;;;;;;;3.13;1.10;;;;;;;;;;5078192;28;20459;-89
2022/06/24 00:08:48;;;;;;;1.85;1.20;;;;;;;;;;5081712;28;20360;-88
2022/06/24 00:11:14;;;;;;;1.95;1.13;;;;;;;;;;5081685;28;20455;-88
2022/06/24 00:13:40;;;;;;;3.20;1.55;;;;;;;;;;5072983;28;20393;-89
2022/06/24 00:16:06;;;;;;;2.47;1.42;;;;;;;;;;5071711;28;20757;-90
2022/06/24 00:18:32;;;;;;;3.17;1.20;;;;;;;;;;5075051;28;20391;-90
2022/06/24 00:20:58;;;;;;;4.90;1.48;;;;;;;;;;5073547;28;20379;-89
2022/06/24 00:23:24;;;;;;;3.10;1.20;;;;;;;;;;5074888;28;20383;-89
2022/06/24 00:25:50;;;;;;;4.10;1.15;;;;;;;;;;5074884;28;20475;-89
2022/06/24 00:28:17;;;;;;;2.80;1.13;;;;;;;;;;5074519;28;20741;-89
2022/06/24 00:30:45;;;;;;;2.20;1.20;;;;;;;;;;5073448;28;20384;-88
2022/06/24 00:33:12;;;;;;;2.53;1.10;;;;;;;;;;5074350;28;20415;-89
2022/06/24 00:35:50;;;;;;;2.67;1.40;;;;;;;;;;5074277;28;20379;-90
2022/06/24 00:38:26;;;;;;;2.40;0.95;;;;;;;;;;5076134;28;20376;-90
2022/06/24 00:40:53;;;;;;;3.55;1.23;;;;;;;;;;5076209;28;20475;-90
2022/06/24 00:43:22;;;;;;;3.08;1.15;;;;;;;;;;5076361;28;20780;-90
2022/06/24 00:45:50;;;;;;;4.45;1.45;;;;;;;;;;5076045;28;20467;-89
2022/06/24 00:48:16;;;;;;;3.17;1.48;;;;;;;;;;5076353;28;20372;-90
2022/06/24 00:50:46;;;;;;;2.85;1.27;;;;;;;;;;5076376;28;20455;-90
2022/06/24 00:53:13;;;;;;;2.53;1.30;;;;;;;;;;5075010;28;20386;-90
2022/06/24 00:55:41;;;;;;;2.47;1.30;;;;;;;;;;5076025;28;20389;-90
2022/06/24 00:58:13;;;;;;;2.72;1.30;;;;;;;;;;5076421;28;20402;-88
2022/06/24 01:00:41;;;;;;;1.88;1.02;;;;;;;;;;5074954;28;20757;-89
2022/06/24 01:03:07;;;;;;;1.88;1.10;;;;;;;;;;5075813;28;20372;-90
2022/06/24 01:05:33;;;;;;;3.67;1.38;;;;;;;;;;5074113;28;20396;-89
2022/06/24 01:08:05;;;;;;;4.00;1.35;;;;;;;;;;5075603;28;20382;-90
2022/06/24 01:10:31;;;;;;;2.33;1.13;;;;;;;;;;5075903;28;20454;-90
2022/06/24 01:12:57;;;;;;;2.42;1.10;;;;;;;;;;5076407;28;20376;-89
2022/06/24 01:15:23;;;;;;;2.60;1.30;;;;;;;;;;5076373;28;20389;-88
2022/06/24 01:17:50;;;;;;;2.97;1.40;;;;;;;;;;5076383;28;20408;-87
2022/06/24 01:20:16;;;;;;;2.55;1.55;;;;;;;;;;5076161;28;20737;-87
2022/06/24 01:22:43;;;;;;;5.55;1.40;;;;;;;;;;5074973;28;20398;-88
2022/06/24 01:25:09;;;;;;;2.67;1.40;;;;;;;;;;5075723;28;20404;-88
2022/06/24 01:27:35;;;;;;;2.55;1.10;;;;;;;;;;5076191;28;20380;-88
2022/06/24 01:30:01;;;;;;;4.18;1.45;;;;;;;;;;5075617;28;20444;-88
2022/06/24 01:32:27;;;;;;;3.80;1.10;;;;;;;;;;5075535;28;20873;-88
2022/06/24 01:34:53;;;;;;;2.70;1.40;;;;;;;;;;5075354;28;20470;-89
2022/06/24 01:37:19;;;;;;;4.72;1.20;;;;;;;;;;5075702;28;20387;-88
2022/06/24 01:39:45;;;;;;;3.22;1.10;;;;;;;;;;5074393;28;20403;-89
2022/06/24 01:42:12;;;;;;;3.08;1.20;;;;;;;;;;5075156;28;20384;-88
2022/06/24 01:44:38;;;;;;;1.95;1.30;;;;;;;;;;5075008;28;20410;-88
2022/06/24 01:47:04;;;;;;;2.28;0.90;;;;;;;;;;5075760;28;20402;-86
2022/06/24 01:49:30;;;;;;;2.80;1.30;;;;;;;;;;5074596;28;20426;-89
2022/06/24 01:51:59;;;;;;;2.20;1.15;;;;;;;;;;5075885;28;20462;-88
2022/06/24 01:54:25;;;;;;;2.75;1.30;;;;;;;;;;5075570;28;20461;-89
2022/06/24 01:56:53;;;;;;;4.95;1.45;;;;;;;;;;5076064;28;20482;-89
2022/06/24 01:59:19;;;;;;;3.22;1.38;;;;;;;;;;5075501;28;20380;-90
2022/06/24 02:01:45;;;;;;;3.95;1.15;;;;;;;;;;5074145;28;20396;-89
2022/06/24 02:04:11;;;;;;;2.45;1.20;;;;;;;;;;5075217;28;20403;-89
2022/06/24 02:06:37;;;;;;;3.20;1.27;;;;;;;;;;5075476;28;20407;-89
2022/06/24 02:09:03;;;;;;;1.85;0.90;;;;;;;;;;5075161;28;20375;-89
2022/06/24 02:14:14;;;;;;;2.47;1.30;;;;;;;;;;5075067;28;20379;-89
2022/06/24 02:16:41;;;;;;;2.30;1.25;;;;;;;;;;5074879;28;20459;-90
2022/06/24 02:19:07;;;;;;;2.83;0.98;;;;;;;;;;5075291;28;20387;-89
2022/06/24 02:21:34;;;;;;;3.67;1.08;;;;;;;;;;5074964;28;20380;-89
2022/06/24 02:24:00;;;;;;;2.60;1.00;;;;;;;;;;5074140;28;20505;-90
2022/06/24 02:26:26;;;;;;;2.05;1.10;;;;;;;;;;5074608;28;20380;-88
2022/06/24 02:28:52;;;;;;;2.40;1.30;;;;;;;;;;5074686;28;20379;-88
2022/06/24 02:31:18;;;;;;;6.47;2.57;;;;;;;;;;5070555;28;20761;-89
2022/06/24 02:33:46;;;;;;;7.40;3.60;;;;;;;;;;5068101;28;20486;-89
2022/06/24 02:36:12;;;;;;;4.35;2.47;;;;;;;;;;5073777;28;20403;-89
2022/06/24 02:38:38;;;;;;;4.60;2.50;;;;;;;;;;5071955;28;20384;-89
2022/06/24 02:41:04;;;;;;;5.33;2.80;;;;;;;;;;5072856;28;20426;-89
2022/06/24 02:43:30;;;;;;;5.57;3.10;;;;;;;;;;5074293;28;20710;-88
2022/06/24 02:45:59;;;;;;;5.38;3.03;;;;;;;;;;5074371;28;20383;-89
2022/06/24 02:48:26;;;;;;;5.38;3.30;;;;;;;;;;5073295;28;20383;-89
2022/06/24 02:50:52;;;;;;;7.10;3.60;;;;;;;;;;5074049;28;20406;-89
2022/06/24 02:53:19;;;;;;;5.05;3.50;;;;;;;;;;5073279;28;20464;-89
2022/06/24 02:55:46;;;;;;;4.00;3.70;;;;;;;;;;5073734;28;20371;-88
2022/06/24 02:58:12;;;;;;;3.53;3.33;;;;;;;;;;5072489;28;20371;-89
2022/06/24 03:00:42;;;;;;;4.38;3.97;;;;;;;;;;5071977;28;20388;-90
2022/06/24 03:03:09;;;;;;;4.28;3.88;;;;;;;;;;5073925;28;20884;-89
2022/06/24 03:05:35;;;;;;;3.85;3.20;;;;;;;;;;5073919;28;20498;-88
2022/06/24 03:08:01;;;;;;;4.60;3.92;;;;;;;;;;5073542;28;20465;-88
2022/06/24 03:10:27;;;;;;;5.82;3.90;;;;;;;;;;5073506;28;20472;-89
2022/06/24 03:12:53;;;;;;;5.65;3.50;;;;;;;;;;5073521;28;20383;-89
2022/06/24 03:15:20;;;;;;;3.80;3.50;;;;;;;;;;5071960;28;20744;-89
2022/06/24 03:17:46;;;;;;;3.65;3.15;;;;;;;;;;5073786;28;20386;-89
2022/06/24 03:20:13;;;;;;;3.25;2.95;;;;;;;;;;5073683;28;20779;-88
2022/06/24 03:22:39;;;;;;;3.75;3.30;;;;;;;;;;5073314;28;20864;-89
2022/06/24 03:25:05;;;;;;;3.27;3.07;;;;;;;;;;5073359;28;20403;-89
2022/06/24 03:27:32;;;;;;;4.85;2.88;;;;;;;;;;5073416;28;20420;-88
2022/06/24 03:29:58;;;;;;;2.97;2.77;;;;;;;;;;5072101;28;20476;-89
2022/06/24 03:32:24;;;;;;;4.32;2.40;;;;;;;;;;5073869;28;20416;-88
2022/06/24 03:34:50;;;;;;;5.45;2.80;;;;;;;;;;5072638;28;20475;-88
2022/06/24 03:37:16;;;;;;;3.97;3.57;;;;;;;;;;5072279;28;20384;-87
2022/06/24 03:39:42;;;;;;;5.05;3.40;;;;;;;;;;5073415;28;20376;-89
2022/06/24 03:42:08;;;;;;;4.10;3.65;;;;;;;;;;5071742;28;20375;-89
2022/06/24 03:44:34;;;;;;;4.67;3.43;;;;;;;;;;5073148;28;20395;-90
2022/06/24 03:47:03;;;;;;;3.10;2.80;;;;;;;;;;5073535;28;20375;-88
2022/06/24 03:49:29;;;;;;;3.63;3.17;;;;;;;;;;5073386;28;20469;-90
2022/06/24 03:51:55;;;;;;;4.90;2.67;;;;;;;;;;5073143;28;20375;-89
2022/06/24 03:54:22;;;;;;;3.47;3.17;;;;;;;;;;5073457;28;20468;-89
2022/06/24 03:56:48;;;;;;;4.93;3.10;;;;;;;;;;5073510;28;20479;-90
2022/06/24 03:59:14;;;;;;;3.40;3.00;;;;;;;;;;5073181;28;20411;-89
2022/06/24 04:01:40;;;;;;;3.60;2.60;;;;;;;;;;5072052;28;20853;-90
2022/06/24 04:04:06;;;;;;;4.10;3.00;;;;;;;;;;5073518;28;20399;-89
2022/06/24 04:06:32;;;;;;;3.90;2.78;;;;;;;;;;5073632;28;20429;-89
2022/06/24 04:08:58;;;;;;;2.78;2.58;;;;;;;;;;5072288;28;20372;-89
2022/06/24 04:11:24;;;;;;;2.88;2.58;;;;;;;;;;5073372;28;20372;-89
2022/06/24 04:13:50;;;;;;;3.10;2.80;;;;;;;;;;5073589;28;20395;-89
2022/06/24 04:16:16;;;;;;;3.78;2.75;;;;;;;;;;5073747;28;20379;-89
2022/06/24 04:18:43;;;;;;;3.85;2.63;;;;;;;;;;5070260;28;20769;-90
2022/06/24 04:21:12;;;;;;;3.03;2.42;;;;;;;;;;5071347;28;20390;-90
2022/06/24 04:23:39;;;;;;;3.40;2.95;;;;;;;;;;5069753;28;20414;-89
2022/06/24 04:26:05;;;;;;;2.63;2.30;;;;;;;;;;5073435;28;20384;-89
2022/06/24 04:28:31;;;;;;;2.85;2.60;;;;;;;;;;5071485;28;20433;-89
2022/06/24 04:30:57;;;;;;;3.33;3.03;;;;;;;;;;5072961;28;20380;-89
2022/06/24 04:33:23;;;;;;;3.38;3.08;;;;;;;;;;5072007;28;20733;-89
2022/06/24 04:35:49;;;;;;;4.03;3.13;;;;;;;;;;5071703;28;20877;-89
2022/06/24 04:38:15;;;;;;;4.57;3.70;;;;;;;;;;5074203;28;20372;-89
2022/06/24 04:40:41;;;;;;;3.75;3.45;;;;;;;;;;5074187;28;20379;-89
2022/06/24 04:43:10;;;;;;;4.40;3.72;;;;;;;;;;5072548;28;20880;-87
2022/06/24 04:45:36;;;;;;;3.47;3.20;;;;;;;;;;5075653;28;20490;-89
2022/06/24 04:48:03;;;;;;;4.05;3.65;;;;;;;;;;5083974;28;20383;-88
2022/06/24 04:50:29;;;;;;;3.30;3.00;;;;;;;;;;5080359;28;20850;-90
2022/06/24 04:52:55;;;;;;;3.60;3.30;;;;;;;;;;5076008;28;20384;-89
2022/06/24 04:55:21;;;;;;;3.72;3.42;;;;;;;;;;5073598;28;20384;-90
2022/06/24 04:57:48;;;;;;;3.25;2.95;;;;;;;;;;5077369;28;20433;-88
2022/06/24 05:00:14;;;;;;;3.85;3.55;;;;;;;;;;5074282;28;20442;-87
2022/06/24 05:02:41;;;;;;;4.93;4.03;;;;;;;;;;5074934;28;20811;-90
2022/06/24 05:05:07;;;;;;;4.47;4.07;;;;;;;;;;5076125;28;20479;-87
2022/06/24 05:07:33;;;;;;;5.88;5.28;;;;;;;;;;5076134;28;20372;-90
2022/06/24 05:09:59;;;;;;;5.88;4.93;;;;;;;;;;5074769;28;20386;-89
2022/06/24 05:12:26;;;;;;;7.32;6.70;;;;;;;;;;5075684;28;20415;-88
2022/06/24 05:14:55;;;;;;;7.35;6.63;;;;;;;;;;5074616;28;20725;-89
2022/06/24 05:17:21;;;;;;;9.10;7.60;;;;;;;;;;5074941;28;20376;-90
2022/06/24 05:19:47;;;;;;;8.63;7.72;;;;;;;;;;5075724;28;20379;-89
2022/06/24 05:22:13;;;;;;;9.07;8.18;;;;;;;;;;5075838;28;20384;-91
2022/06/24 05:24:39;;;;;;;7.20;6.50;;;;;;;;;;5075591;28;20431;-89
2022/06/24 05:27:05;;;;;;;5.80;5.30;;;;;;;;;;5078758;28;20466;-90
2022/06/24 05:29:31;;;;;;;6.45;5.95;;;;;;;;;;5077829;28;20449;-90
2022/06/24 05:31:57;;;;;;;7.30;6.70;;;;;;;;;;5075149;28;20880;-90
2022/06/24 05:34:23;;;;;;;6.10;5.70;;;;;;;;;;5078022;28;20380;-90
2022/06/24 05:36:50;;;;;;;6.22;5.72;;;;;;;;;;5077334;28;20390;-89
2022/06/24 05:39:16;;;;;;;5.55;4.68;;;;;;;;;;5077878;28;20463;-90
2022/06/24 05:41:43;;;;;;;5.05;4.53;;;;;;;;;;5076026;28;20840;-89
2022/06/24 05:44:09;;;;;;;4.70;4.30;;;;;;;;;;5078238;28;20908;-89
2022/06/24 05:46:35;;;;;;;5.32;4.20;;;;;;;;;;5078251;28;20384;-90
2022/06/24 05:49:01;;;;;;;4.68;4.28;;;;;;;;;;5077466;28;20447;-90
2022/06/24 05:51:28;;;;;;;5.43;4.93;;;;;;;;;;5077544;28;20376;-89
2022/06/24 05:56:39;;;;;;;6.00;4.90;;;;;;;;;;5075759;28;20563;-90
2022/06/24 05:59:05;;;;;;;6.38;5.35;;;;;;;;;;5075623;28;20379;-90
2022/06/24 06:01:31;;;;;;;6.35;5.60;;;;;;;;;;5075687;28;20380;-90
2022/06/24 06:03:58;;;;;;;8.13;5.10;;;;;;;;;;5076748;28;20911;-90
2022/06/24 06:06:24;;;;;;;4.78;4.35;;;;;;;;;;5076116;28;20378;-91
2022/06/24 06:08:50;;;;;;;6.57;5.38;;;;;;;;;;5075535;28;20384;-90
2022/06/24 06:11:18;;;;;;;5.78;5.28;;;;;;;;;;5076007;28;20380;-90
2022/06/24 06:13:45;;;;;;;5.63;5.10;;;;;;;;;;5075091;28;20392;-91
2022/06/24 06:16:11;;;;;;;6.10;5.50;;;;;;;;;;5074603;28;20430;-91
2022/06/24 06:18:37;;;;;;;8.27;7.45;;;;;;;;;;5074377;28;20407;-91
2022/06/24 06:21:04;;;;;;;8.68;7.88;;;;;;;;;;5074653;28;20372;-91
2022/06/24 06:23:30;;;;;;;10.40;9.45;;;;;;;;;;5073440;28;20811;-92
2022/06/24 06:25:57;;;;;;;10.83;9.83;;;;;;;;;;5074490;28;20384;-89
2022/06/24 06:28:23;;;;;;;10.02;9.15;;;;;;;;;;5074897;28;20516;-89
2022/06/24 06:30:49;;;;;;;10.77;9.70;;;;;;;;;;5074846;28;20900;-89
2022/06/24 06:33:15;;;;;;;11.55;10.45;;;;;;;;;;5075287;28;20516;-89
2022/06/24 06:35:41;;;;;;;10.82;9.73;;;;;;;;;;5074721;28;20528;-91
2022/06/24 06:38:07;;;;;;;14.55;11.00;;;;;;;;;;5064370;28;20389;-91
2022/06/24 06:40:36;;;;;;;11.75;10.55;;;;;;;;;;5070484;28;20388;-89
2022/06/24 06:43:05;;;;;;;11.15;9.93;;;;;;;;;;5072448;28;20457;-90
2022/06/24 06:45:31;;;;;;;11.10;10.00;;;;;;;;;;5072333;28;20407;-91
2022/06/24 06:47:57;;;;;;;11.02;9.93;;;;;;;;;;5074599;28;20411;-90
2022/06/24 06:50:23;;;;;;;16.48;11.13;;;;;;;;;;5074977;28;20411;-90
2022/06/24 06:52:49;;;;;;;11.88;10.55;;;;;;;;;;5073978;28;20805;-92
2022/06/24 06:55:18;;;;;;;5.82;4.88;;;;;;;;;;5075746;28;20380;-90
2022/06/24 06:57:44;;;;;;;5.38;4.10;;;;;;;;;;5075775;28;20487;-90
2022/06/24 07:00:10;;;;;;;6.57;4.00;;;;;;;;;;5076564;28;20383;-90
2022/06/24 07:02:37;;;;;;;3.92;3.60;;;;;;;;;;5069876;28;20442;-90
2022/06/24 07:05:03;;;;;;;5.15;3.08;;;;;;;;;;5072975;28;20448;-90
2022/06/24 07:07:30;;;;;;;4.18;3.53;;;;;;;;;;5076079;28;20429;-90
2022/06/24 07:09:56;;;;;;;6.93;3.75;;;;;;;;;;5073542;28;20380;-89
2022/06/24 07:12:23;;;;;;;4.25;3.67;;;;;;;;;;5073955;28;20384;-90
2022/06/24 07:14:49;;;;;;;7.60;3.33;;;;;;;;;;5075576;28;20948;-90
2022/06/24 07:17:15;;;;;;;4.50;3.20;;;;;;;;;;5075387;28;20423;-89
2022/06/24 07:19:41;;;;;;;5.93;3.10;;;;;;;;;;5075083;28;20375;-90
2022/06/24 07:22:07;;;;;;;5.93;3.90;;;;;;;;;;5074957;28;20368;-88
2022/06/24 07:24:33;;;;;;;6.80;3.75;;;;;;;;;;5073886;28;20888;-90
2022/06/24 07:27:02;;;;;;;6.32;3.60;;;;;;;;;;5074046;28;20387;-90
2022/06/24 07:29:28;;;;;;;4.10;3.17;;;;;;;;;;5074981;28;20407;-90
2022/06/24 07:31:54;;;;;;;6.53;3.83;;;;;;;;;;5075405;28;20873;-90
2022/06/24 07:34:21;;;;;;;7.20;4.10;;;;;;;;;;5080850;28;20489;-90
2022/06/24 07:36:47;;;;;;;6.82;3.92;;;;;;;;;;5075557;28;20383;-90
2022/06/24 07:39:16;;;;;;;6.82;2.88;;;;;;;;;;5075100;28;20394;-90
2022/06/24 07:41:42;;;;;;;7.20;3.33;;;;;;;;;;5075371;28;20507;-90
2022/06/24 07:44:08;;;;;;;6.30;3.40;;;;;;;;;;5076320;28;20473;-90
2022/06/24 07:46:34;;;;;;;5.18;3.42;;;;;;;;;;5075284;28;20376;-91
2022/06/24 07:49:00;;;;;;;6.18;3.47;;;;;;;;;;5074197;28;20876;-90
2022/06/24 07:51:26;;;;;;;7.28;3.70;;;;;;;;;;5075665;28;20383;-90
2022/06/24 07:53:52;;;;;;;5.22;2.97;;;;;;;;;;5073620;28;20380;-90
2022/06/24 07:59:04;;;;;;;6.10;3.50;;;;;;;;;;5074823;28;20375;-91
2022/06/24 08:01:30;;;;;;;7.35;3.97;;;;;;;;;;5074065;28;20938;-91
2022/06/24 08:03:56;;;;;;;6.75;4.22;;;;;;;;;;5074337;28;20433;-90
2022/06/24 08:06:22;;;;;;;8.18;4.30;;;;;;;;;;5073314;28;20383;-90
2022/06/24 08:08:48;;;;;;;5.22;3.92;;;;;;;;;;5073616;28;20383;-91
2022/06/24 08:11:14;;;;;;;5.45;4.18;;;;;;;;;;5073259;28;20378;-91
2022/06/24 08:13:40;;;;;;;7.25;4.45;;;;;;;;;;5072992;28;20380;-91
2022/06/24 08:16:06;;;;;;;8.60;3.92;;;;;;;;;;5071099;28;20375;-91
2022/06/24 08:18:32;;;;;;;5.68;3.95;;;;;;;;;;5073367;28;20378;-90
2022/06/24 08:20:59;;;;;;;6.20;3.80;;;;;;;;;;5075787;28;20465;-90
2022/06/24 08:23:25;;;;;;;9.88;4.18;;;;;;;;;;5076951;28;20398;-90
2022/06/24 08:25:51;;;;;;;5.95;3.55;;;;;;;;;;5065929;28;20442;-91
2022/06/24 08:28:17;;;;;;;6.32;3.10;;;;;;;;;;5070212;28;20417;-90
2022/06/24 08:30:43;;;;;;;5.05;2.47;;;;;;;;;;5076123;28;20527;-90
2022/06/24 08:33:09;;;;;;;5.45;2.67;;;;;;;;;;5074258;28;20413;-92
2022/06/24 08:35:35;;;;;;;4.95;2.70;;;;;;;;;;5076205;28;20379;-91
2022/06/24 08:38:01;;;;;;;8.43;2.90;;;;;;;;;;5064567;28;20379;-91
2022/06/24 08:40:28;;;;;;;5.45;2.95;;;;;;;;;;5075670;28;20472;-91
2022/06/24 08:42:55;;;;;;;6.93;2.63;;;;;;;;;;5067477;28;20523;-90
2022/06/24 08:45:22;;;;;;;4.50;2.70;;;;;;;;;;5075609;28;20465;-90
2022/06/24 08:47:51;;;;;;;5.50;2.95;;;;;;;;;;5074337;28;20372;-92
2022/06/24 08:50:18;;;;;;;6.03;2.70;;;;;;;;;;5076462;28;20468;-92
2022/06/24 08:52:49;;;;;;;6.03;2.65;;;;;;;;;;5077138;28;20398;-91
2022/06/24 08:55:19;;;;;;;5.35;2.80;;;;;;;;;;5078669;28;20397;-92
2022/06/24 08:57:46;;;;;;;6.78;3.17;;;;;;;;;;5077661;28;20390;-91
2022/06/24 09:00:12;;;;;;;6.07;2.70;;;;;;;;;;5077344;28;20454;-91
2022/06/24 09:02:39;;;;;;;6.82;2.47;;;;;;;;;;5075981;28;20753;-91
2022/06/24 09:05:09;;;;;;;5.47;2.42;;;;;;;;;;5077272;28;20403;-89
2022/06/24 09:07:35;;;;;;;4.47;2.40;;;;;;;;;;5077141;28;20372;-91
2022/06/24 09:10:03;;;;;;;6.35;2.58;;;;;;;;;;5077361;28;20497;-91
2022/06/24 09:12:39;;;;;;;5.25;2.55;;;;;;;;;;5074861;28;20873;-91
2022/06/24 09:15:05;;;;;;;5.85;2.50;;;;;;;;;;5076745;28;20388;-92
2022/06/24 09:17:32;;;;;;;3.97;2.40;;;;;;;;;;5076913;28;20401;-91
2022/06/24 09:20:28;;;;;;;4.87;2.50;;;;;;;;;;5076925;28;20466;-91
2022/06/24 09:23:20;;;;;;;5.40;2.28;;;;;;;;;;5063079;28;20426;-90
2022/06/24 09:25:47;;;;;;;4.45;2.00;;;;;;;;;;5075694;28;20415;-91
2022/06/24 09:28:24;;;;;;;4.82;2.15;;;;;;;;;;5075242;28;20857;-90
2022/06/24 09:30:50;;;;;;;4.60;1.90;;;;;;;;;;5077269;28;20425;-90
2022/06/24 09:33:17;;;;;;;3.85;2.00;;;;;;;;;;5077466;28;20383;-89
2022/06/24 09:35:44;;;;;;;5.53;1.98;;;;;;;;;;5074642;28;20384;-90
2022/06/24 09:38:10;;;;;;;4.03;1.58;;;;;;;;;;5074966;28;20376;-90
2022/06/24 09:40:36;;;;;;;4.32;1.90;;;;;;;;;;5077737;28;20387;-88
2022/06/24 09:43:09;;;;;;;5.75;1.75;;;;;;;;;;5078043;28;20411;-90
2022/06/24 09:45:52;;;;;;;4.45;1.67;;;;;;;;;;5078135;28;20408;-91
2022/06/24 09:48:39;;;;;;;5.28;1.65;;;;;;;;;;5077562;28;20379;-91
2022/06/24 09:51:06;;;;;;;4.65;1.70;;;;;;;;;;5074856;28;20411;-90
2022/06/24 09:53:35;;;;;;;4.35;2.10;;;;;;;;;;5074412;28;20383;-90
2022/06/24 09:56:01;;;;;;;4.07;1.73;;;;;;;;;;5076207;28;20379;-91
2022/06/24 09:58:28;;;;;;;4.85;2.00;;;;;;;;;;5068735;28;20505;-90
2022/06/24 10:00:55;;;;;;;6.45;2.00;;;;;;;;;;5074462;28;20852;-91
2022/06/24 10:03:21;;;;;;;6.53;2.13;;;;;;;;;;5071844;28;20380;-91
2022/06/24 10:05:52;;;;;;;4.07;1.92;;;;;;;;;;5067984;28;20410;-92
2022/06/24 10:08:21;;;;;;;4.45;2.05;;;;;;;;;;5074463;28;20876;-92
2022/06/24 10:10:54;;;;;;;4.95;1.80;;;;;;;;;;5074284;28;20376;-91
2022/06/24 10:13:25;;;;;;;6.53;2.20;;;;;;;;;;5073093;28;20395;-92
2022/06/24 10:15:52;;;;;;;4.78;2.03;;;;;;;;;;5072747;28;20722;-91
2022/06/24 10:18:19;;;;;;;2.55;1.52;;;;;;;;;;5073640;28;20388;-88
2022/06/24 10:20:46;;;;;;;3.90;1.80;;;;;;;;;;5073600;28;20496;-89
2022/06/24 10:23:50;;;;;;;5.10;1.80;;;;;;;;;;5073795;28;20375;-90
2022/06/24 10:26:25;;;;;;;4.30;1.80;;;;;;;;;;5031906;28;20403;-89
2022/06/24 10:29:03;;;;;;;3.80;1.80;;;;;;;;;;5032096;28;20438;-88
2022/06/24 10:31:38;;;;;;;4.80;2.00;;;;;;;;;;5031362;28;20383;-88
2022/06/24 10:34:04;;;;;;;3.33;1.90;;;;;;;;;;5030608;28;20450;-89
2022/06/24 10:36:31;;;;;;;4.30;1.90;;;;;;;;;;5031294;28;20415;-88
2022/06/24 10:39:07;;;;;;;3.65;1.80;;;;;;;;;;5036958;28;20905;-87
2022/06/24 10:41:37;;;;;;;4.37;1.60;;;;;;;;;;5020028;28;20403;-88
2022/06/24 10:44:21;;;;;;;3.33;1.75;;;;;;;;;;5031271;28;20834;-88
2022/06/24 10:46:47;;;;;;;5.17;1.93;;;;;;;;;;5031453;28;20383;-87
2022/06/24 10:49:13;;;;;;;4.45;1.70;;;;;;;;;;5028144;28;20398;-88
2022/06/24 10:51:39;;;;;;;3.35;1.60;;;;;;;;;;5026420;28;20875;-88
2022/06/24 10:54:09;;;;;;;3.35;1.80;;;;;;;;;;5029954;28;20398;-89
2022/06/24 10:56:44;;;;;;;4.60;1.70;;;;;;;;;;5045359;28;20902;-88
2022/06/24 10:59:12;;;;;;;3.35;1.58;;;;;;;;;;5070736;28;20397;-88
2022/06/24 11:01:42;;;;;;;3.35;1.60;;;;;;;;;;5073213;28;20391;-89
2022/06/24 11:04:10;;;;;;;2.83;1.48;;;;;;;;;;5071337;28;20892;-89
2022/06/24 11:06:36;;;;;;;5.18;3.47;;;;;;;;;;5072945;28;20398;-88
2022/06/24 11:09:08;;;;;;;3.78;1.75;;;;;;;;;;5072613;28;20459;-89
2022/06/24 11:11:35;;;;;;;4.43;1.70;;;;;;;;;;5073078;28;20380;-89
2022/06/24 11:14:21;;;;;;;4.90;2.30;;;;;;;;;;5073071;28;20954;-91
2022/06/24 11:16:47;;;;;;;3.00;1.88;;;;;;;;;;5073495;28;20447;-89
2022/06/24 11:19:13;;;;;;;3.83;1.77;;;;;;;;;;5071927;28;20412;-88
2022/06/24 11:21:49;;;;;;;3.35;1.67;;;;;;;;;;5072870;28;20375;-89
2022/06/24 11:24:18;;;;;;;5.95;2.80;;;;;;;;;;5073909;28;20395;-91
2022/06/24 11:27:05;;;;;;;5.53;1.90;;;;;;;;;;5071664;28;20444;-88
2022/06/24 11:29:50;;;;;;;4.25;1.80;;;;;;;;;;5069839;28;20871;-93
2022/06/24 11:32:16;;;;;;;4.90;1.90;;;;;;;;;;5069823;28;20372;-94
2022/06/24 11:34:43;;;;;;;4.22;1.80;;;;;;;;;;5073340;28;20387;-91
2022/06/24 11:37:09;;;;;;;5.60;1.85;;;;;;;;;;5072175;28;20480;-91
2022/06/24 11:39:35;;;;;;;4.40;1.90;;;;;;;;;;5074555;28;20394;-91
2022/06/24 11:42:01;;;;;;;4.10;1.65;;;;;;;;;;5073012;28;20466;-90
2022/06/24 11:44:40;;;;;;;5.38;1.50;;;;;;;;;;5073184;28;20961;-91
2022/06/24 11:47:06;;;;;;;4.07;1.60;;;;;;;;;;5073379;28;20372;-90
2022/06/24 11:49:33;;;;;;;7.13;1.90;;;;;;;;;;5071623;28;20462;-90
2022/06/24 11:52:00;;;;;;;3.72;1.52;;;;;;;;;;5072939;28;20741;-90
2022/06/24 11:54:27;;;;;;;5.35;2.00;;;;;;;;;;5071492;28;20414;-91
2022/06/24 11:56:53;;;;;;;3.65;1.90;;;;;;;;;;5075951;28;20387;-90
2022/06/24 11:59:20;;;;;;;5.00;1.77;;;;;;;;;;5077055;28;20461;-90
2022/06/24 12:01:47;;;;;;;4.75;2.00;;;;;;;;;;5077067;28;20804;-91
2022/06/24 12:04:13;;;;;;;4.28;1.80;;;;;;;;;;5076738;28;20431;-90
2022/06/24 12:06:40;;;;;;;6.18;3.50;;;;;;;;;;5077184;28;20375;-92
2022/06/24 12:09:06;;;;;;;5.70;3.10;;;;;;;;;;5077145;28;20375;-91
2022/06/24 12:11:39;;;;;;;5.10;2.28;;;;;;;;;;5077165;28;20398;-92
2022/06/24 12:14:07;;;;;;;3.80;2.20;;;;;;;;;;5076693;28;20517;-89
2022/06/24 12:16:52;;;;;;;6.07;2.60;;;;;;;;;;5075839;28;20387;-89
2022/06/24 12:19:18;;;;;;;6.47;2.53;;;;;;;;;;5078211;28;20581;-90
2022/06/24 12:21:44;;;;;;;4.40;2.78;;;;;;;;;;5077922;28;20436;-89
2022/06/24 12:24:20;;;;;;;5.15;2.70;;;;;;;;;;5076958;28;20917;-90
2022/06/24 12:26:46;;;;;;;5.13;2.80;;;;;;;;;;5078625;28;20411;-89
2022/06/24 12:29:12;;;;;;;5.00;2.50;;;;;;;;;;5077382;28;20376;-90
2022/06/24 12:31:38;;;;;;;6.30;2.50;;;;;;;;;;5077842;28;20391;-90
2022/06/24 12:34:05;;;;;;;5.03;2.20;;;;;;;;;;5078215;28;20380;-89
2022/06/24 12:36:41;;;;;;;4.57;2.38;;;;;;;;;;5079751;28;20433;-85
2022/06/24 12:39:09;;;;;;;7.05;2.67;;;;;;;;;;5071753;28;20394;-86
2022/06/24 12:41:45;;;;;;;6.95;2.92;;;;;;;;;;5072947;28;20391;-85
2022/06/24 12:44:11;;;;;;;4.88;2.53;;;;;;;;;;5073129;28;20821;-85
2022/06/24 12:46:37;;;;;;;3.72;2.05;;;;;;;;;;5070782;28;20376;-84
2022/06/24 12:51:58;;;;;;;5.03;2.22;;;;;;;;;;5075559;28;20905;-84
2022/06/24 12:54:24;;;;;;;4.70;1.88;;;;;;;;;;5073848;28;20406;-85
2022/06/24 12:56:51;;;;;;;2.00;1.60;;;;;;;;;;5073386;28;20868;-84
2022/06/24 12:59:17;;;;;;;4.75;1.90;;;;;;;;;;5074470;28;20429;-84
2022/06/24 13:01:45;;;;;;;6.63;2.20;;;;;;;;;;5074828;28;20788;-84
2022/06/24 13:04:11;;;;;;;5.70;2.10;;;;;;;;;;5073479;28;20395;-83
2022/06/24 13:06:38;;;;;;;2.42;2.00;;;;;;;;;;5074462;28;20866;-86
2022/06/24 13:09:07;;;;;;;4.97;2.45;;;;;;;;;;5074193;28;20404;-87
2022/06/24 13:11:34;;;;;;;2.47;2.28;;;;;;;;;;5075536;28;20864;-86
2022/06/24 13:14:01;;;;;;;4.05;2.45;;;;;;;;;;5069804;28;20396;-85
2022/06/24 13:16:27;;;;;;;8.63;2.85;;;;;;;;;;5059850;28;20391;-85
2022/06/24 13:18:53;;;;;;;7.60;2.45;;;;;;;;;;5075626;28;20427;-86
2022/06/24 13:21:19;;;;;;;3.83;2.20;;;;;;;;;;5075587;28;20387;-86
2022/06/24 13:23:45;;;;;;;3.88;2.35;;;;;;;;;;5075323;28;20395;-87
2022/06/24 13:26:11;;;;;;;3.03;2.08;;;;;;;;;;5072566;28;20390;-86
2022/06/24 13:28:37;;;;;;;2.25;1.60;;;;;;;;;;5073773;28;20864;-86
2022/06/24 13:31:04;;;;;;;3.27;1.90;;;;;;;;;;5075083;28;20386;-85
2022/06/24 13:33:30;;;;;;;3.22;2.00;;;;;;;;;;5074997;28;20376;-83
2022/06/24 13:35:56;;;;;;;4.07;2.95;;;;;;;;;;5074910;28;20379;-84
2022/06/24 13:38:25;;;;;;;4.93;2.33;;;;;;;;;;5075180;28;20428;-84
2022/06/24 13:40:51;;;;;;;2.67;2.17;;;;;;;;;;5069731;28;20380;-81
2022/06/24 13:43:20;;;;;;;4.35;1.83;;;;;;;;;;5074953;28;20420;-83
2022/06/24 13:45:46;;;;;;;3.00;1.90;;;;;;;;;;5074685;28;20497;-85
2022/06/24 13:48:12;;;;;;;2.97;1.38;;;;;;;;;;5074739;28;20380;-85
2022/06/24 13:50:39;;;;;;;3.53;1.30;;;;;;;;;;5074368;28;20386;-82
2022/06/24 13:53:05;;;;;;;2.53;1.40;;;;;;;;;;5074443;28;20371;-84
2022/06/24 13:55:32;;;;;;;3.15;1.35;;;;;;;;;;5074284;28;20387;-85
2022/06/24 13:57:58;;;;;;;2.73;1.43;;;;;;;;;;5074514;28;20403;-84
2022/06/24 14:00:24;;;;;;;2.45;1.55;;;;;;;;;;5074506;28;20403;-83
2022/06/24 14:02:50;;;;;;;2.97;1.58;;;;;;;;;;5074824;28;20398;-82
2022/06/24 14:05:16;;;;;;;4.13;1.90;;;;;;;;;;5073953;28;20399;-81
2022/06/24 14:07:42;;;;;;;1.92;1.63;;;;;;;;;;5064026;28;20399;-83
2022/06/24 14:10:09;;;;;;;3.03;1.90;;;;;;;;;;5068954;28;20421;-81
2022/06/24 14:12:35;;;;;;;3.47;1.88;;;;;;;;;;5053887;28;20426;-82
2022/06/24 14:15:01;;;;;;;2.70;1.60;;;;;;;;;;5072026;28;20460;-82
2022/06/24 14:17:27;;;;;;;1.63;1.42;;;;;;;;;;5072926;28;20392;-81
2022/06/24 14:19:53;;;;;;;2.20;1.42;;;;;;;;;;5067364;28;20395;-83
2022/06/24 14:22:19;;;;;;;1.70;1.50;;;;;;;;;;5074085;28;20943;-85
2022/06/24 14:24:45;;;;;;;2.65;1.52;;;;;;;;;;5073145;28;20479;-83
2022/06/24 14:27:11;;;;;;;3.33;1.75;;;;;;;;;;5073897;28;20380;-83
2022/06/24 14:29:38;;;;;;;2.13;1.58;;;;;;;;;;5071210;28;20399;-83
2022/06/24 14:32:05;;;;;;;3.05;2.10;;;;;;;;;;5073251;28;20408;-83
2022/06/24 14:34:31;;;;;;;3.17;1.90;;;;;;;;;;5074282;28;20376;-83
2022/06/24 14:36:57;;;;;;;3.20;1.80;;;;;;;;;;5067273;28;20868;-83
2022/06/24 14:42:08;;;;;;;1.92;1.67;;;;;;;;;;5074013;28;20375;-82
2022/06/24 14:44:34;;;;;;;1.63;1.52;;;;;;;;;;5071993;28;20777;-82
2022/06/24 14:47:04;;;;;;;2.90;1.50;;;;;;;;;;5073229;28;20440;-82
2022/06/24 14:49:31;;;;;;;2.38;1.60;;;;;;;;;;5072268;28;20391;-81
2022/06/24 14:51:58;;;;;;;1.33;0.90;;;;;;;;;;5072172;28;20376;-82
2022/06/24 14:54:24;;;;;;;2.05;1.20;;;;;;;;;;5057975;28;20447;-79
2022/06/24 14:56:50;;;;;;;3.88;1.38;;;;;;;;;;5061973;28;20488;-80
2022/06/24 14:59:16;;;;;;;2.22;1.10;;;;;;;;;;5065543;28;20399;-82